createdAt,value
2023-04-22T00:02:09.714Z,26.70
2023-04-22T00:04:37.772Z,26.70
2023-04-22T00:07:05.627Z,26.70
2023-04-22T00:09:33.318Z,26.60
2023-04-22T00:12:02.976Z,26.70
2023-04-22T00:14:30.704Z,26.60
2023-04-22T00:16:58.630Z,26.60
2023-04-22T00:19:26.285Z,26.60
2023-04-22T00:21:54.144Z,26.60
2023-04-22T00:24:21.810Z,26.60
2023-04-22T00:26:49.478Z,26.60
2023-04-22T00:29:18.459Z,26.60
2023-04-22T00:31:46.122Z,26.60
2023-04-22T00:34:13.795Z,26.60
2023-04-22T00:36:41.414Z,26.60
2023-04-22T00:39:09.142Z,26.60
2023-04-22T00:41:36.772Z,26.60
2023-04-22T00:44:05.120Z,26.60
2023-04-22T00:46:35.290Z,26.60
2023-04-22T00:49:03.483Z,26.60
2023-04-22T00:51:31.739Z,26.60
2023-04-22T00:54:01.777Z,26.60
2023-04-22T00:56:30.896Z,26.60
2023-04-22T00:58:59.144Z,26.60
2023-04-22T01:01:27.665Z,26.60
2023-04-22T01:03:57.406Z,26.60
2023-04-22T01:06:26.818Z,26.60
2023-04-22T01:08:54.986Z,26.60
2023-04-22T01:11:23.410Z,26.60
2023-04-22T01:13:51.459Z,26.60
2023-04-22T01:16:19.958Z,26.60
2023-04-22T01:18:47.669Z,26.60
2023-04-22T01:21:17.076Z,26.60
2023-04-22T01:23:47.326Z,26.60
2023-04-22T01:26:15.025Z,26.60
2023-04-22T01:28:43.055Z,26.60
2023-04-22T01:31:10.893Z,26.60
2023-04-22T01:33:39.170Z,26.60
2023-04-22T01:36:07.315Z,26.60
2023-04-22T01:38:35.772Z,26.60
2023-04-22T01:41:04.904Z,26.60
2023-04-22T01:43:33.205Z,26.60
2023-04-22T01:46:02.501Z,26.50
2023-04-22T01:48:30.258Z,26.50
2023-04-22T01:50:57.921Z,26.50
2023-04-22T01:53:25.792Z,26.50
2023-04-22T01:55:53.590Z,26.50
2023-04-22T01:58:22.623Z,26.50
2023-04-22T02:00:50.327Z,26.50
2023-04-22T02:03:18.081Z,26.50
2023-04-22T02:05:45.836Z,26.50
2023-04-22T02:08:13.476Z,26.50
2023-04-22T02:10:41.377Z,26.50
2023-04-22T02:13:09.020Z,26.50
2023-04-22T02:15:39.346Z,26.50
2023-04-22T02:18:10.104Z,26.50
2023-04-22T02:20:38.237Z,26.50
2023-04-22T02:23:06.569Z,26.50
2023-04-22T02:25:34.247Z,26.50
2023-04-22T02:28:01.873Z,26.50
2023-04-22T02:30:30.175Z,26.50
2023-04-22T02:32:59.202Z,26.50
2023-04-22T02:35:26.855Z,26.50
2023-04-22T02:37:54.478Z,26.50
2023-04-22T02:40:22.539Z,26.50
2023-04-22T02:42:50.192Z,26.50
2023-04-22T02:45:18.064Z,26.50
2023-04-22T02:47:45.786Z,26.50
2023-04-22T02:50:15.042Z,26.50
2023-04-22T02:52:42.652Z,26.50
2023-04-22T02:55:11.244Z,26.50
2023-04-22T02:57:39.466Z,26.50
2023-04-22T03:00:09.258Z,26.50
2023-04-22T03:02:37.027Z,26.50
2023-04-22T03:05:05.077Z,26.50
2023-04-22T03:07:34.058Z,26.50
2023-04-22T03:10:01.716Z,26.50
2023-04-22T03:12:29.343Z,26.50
2023-04-22T03:14:57.056Z,26.50
2023-04-22T03:17:25.931Z,26.40
2023-04-22T03:19:53.686Z,26.40
2023-04-22T03:22:21.315Z,26.40
2023-04-22T03:24:50.322Z,26.40
2023-04-22T03:27:17.948Z,26.40
2023-04-22T03:29:45.842Z,26.40
2023-04-22T03:32:13.543Z,26.40
2023-04-22T03:34:41.216Z,26.40
2023-04-22T03:37:08.907Z,26.40
2023-04-22T03:39:36.746Z,26.40
2023-04-22T03:42:06.069Z,26.40
2023-04-22T03:44:33.736Z,26.40
2023-04-22T03:47:01.331Z,26.40
2023-04-22T03:49:29.520Z,26.40
2023-04-22T03:51:57.176Z,26.40
2023-04-22T03:54:25.704Z,26.40
2023-04-22T03:56:53.448Z,26.40
2023-04-22T03:59:22.428Z,26.40
2023-04-22T04:01:52.913Z,26.40
2023-04-22T04:04:20.938Z,26.40
2023-04-22T04:06:48.776Z,26.40
2023-04-22T04:09:16.451Z,26.40
2023-04-22T04:11:44.116Z,26.40
2023-04-22T04:14:11.897Z,26.40
2023-04-22T04:16:40.905Z,26.40
2023-04-22T04:19:09.274Z,26.40
2023-04-22T04:21:37.595Z,26.40
2023-04-22T04:24:06.241Z,26.40
2023-04-22T04:26:34.648Z,26.40
2023-04-22T04:29:02.660Z,26.40
2023-04-22T04:31:30.414Z,26.30
2023-04-22T04:34:00.314Z,26.40
2023-04-22T04:36:29.410Z,26.30
2023-04-22T04:38:57.163Z,26.30
2023-04-22T04:41:27.045Z,26.30
2023-04-22T04:43:55.078Z,26.30
2023-04-22T04:46:22.758Z,26.30
2023-04-22T04:48:51.655Z,26.30
2023-04-22T04:51:20.788Z,26.30
2023-04-22T04:53:48.489Z,26.30
2023-04-22T04:56:16.868Z,26.30
2023-04-22T04:58:44.515Z,26.30
2023-04-22T05:01:12.229Z,26.30
2023-04-22T05:03:40.019Z,26.30
2023-04-22T05:06:08.508Z,26.30
2023-04-22T05:08:37.600Z,26.30
2023-04-22T05:11:05.274Z,26.30
2023-04-22T05:13:33.122Z,26.30
2023-04-22T05:16:00.865Z,26.30
2023-04-22T05:18:28.563Z,26.30
2023-04-22T05:20:58.778Z,26.20
2023-04-22T05:23:30.201Z,26.20
2023-04-22T05:25:59.785Z,26.20
2023-04-22T05:28:27.416Z,26.20
2023-04-22T05:30:55.040Z,26.20
2023-04-22T05:33:22.709Z,26.20
2023-04-22T05:35:51.462Z,26.30
2023-04-22T05:38:19.143Z,26.20
2023-04-22T05:40:46.790Z,26.20
2023-04-22T05:43:16.167Z,26.20
2023-04-22T05:45:44.292Z,26.20
2023-04-22T05:48:11.994Z,26.20
2023-04-22T05:50:39.701Z,26.20
2023-04-22T05:53:07.349Z,26.30
2023-04-22T05:55:35.439Z,26.30
2023-04-22T05:58:03.078Z,26.30
2023-04-22T06:00:32.153Z,26.20
2023-04-22T06:02:59.883Z,26.20
2023-04-22T06:05:27.803Z,26.30
2023-04-22T06:07:55.633Z,26.30
2023-04-22T06:10:23.584Z,26.30
2023-04-22T06:12:51.228Z,26.30
2023-04-22T06:15:19.028Z,26.30
2023-04-22T06:17:49.235Z,26.30
2023-04-22T06:20:16.884Z,26.30
2023-04-22T06:22:44.633Z,26.40
2023-04-22T06:25:12.362Z,26.50
2023-04-22T06:27:39.989Z,26.60
2023-04-22T06:30:09.433Z,26.70
2023-04-22T06:32:37.120Z,26.80
2023-04-22T06:35:06.904Z,27.00
2023-04-22T06:37:34.657Z,27.10
2023-04-22T06:40:02.299Z,27.20
2023-04-22T06:42:29.937Z,27.40
2023-04-22T06:44:57.546Z,27.50
2023-04-22T06:47:25.309Z,27.50
2023-04-22T06:49:52.948Z,27.60
2023-04-22T06:52:24.086Z,27.70
2023-04-22T06:54:51.994Z,27.70
2023-04-22T06:57:19.656Z,27.70
2023-04-22T06:59:47.397Z,27.80
2023-04-22T07:02:15.308Z,27.80
2023-04-22T07:04:43.069Z,27.80
2023-04-22T07:07:10.850Z,27.80
2023-04-22T07:09:40.362Z,27.80
2023-04-22T07:12:08.252Z,27.80
2023-04-22T07:14:35.889Z,27.80
2023-04-22T07:17:03.503Z,27.90
2023-04-22T07:19:32.564Z,27.90
2023-04-22T07:22:01.551Z,27.90
2023-04-22T07:24:29.154Z,27.90
2023-04-22T07:26:58.138Z,28.00
2023-04-22T07:29:25.802Z,28.00
2023-04-22T07:31:53.499Z,28.00
2023-04-22T07:34:21.226Z,28.10
2023-04-22T07:36:50.560Z,28.20
2023-04-22T07:39:18.190Z,28.20
2023-04-22T07:41:45.866Z,28.30
2023-04-22T07:44:18.376Z,28.40
2023-04-22T07:46:46.141Z,28.50
2023-04-22T07:49:14.145Z,28.70
2023-04-22T07:51:42.197Z,28.80
2023-04-22T07:54:09.862Z,28.90
2023-04-22T07:56:37.537Z,29.10
2023-04-22T07:59:05.872Z,29.30
2023-04-22T08:01:34.837Z,29.40
2023-04-22T08:04:02.889Z,29.60
2023-04-22T08:06:31.962Z,29.70
2023-04-22T08:08:59.624Z,29.90
2023-04-22T08:11:27.318Z,30.10
2023-04-22T08:13:55.086Z,30.30
2023-04-22T08:16:22.908Z,30.40
2023-04-22T08:18:53.073Z,30.60
2023-04-22T08:21:20.993Z,30.70
2023-04-22T08:23:48.701Z,30.80
2023-04-22T08:26:16.983Z,31.00
2023-04-22T08:28:44.717Z,31.10
2023-04-22T08:31:13.042Z,31.20
2023-04-22T08:33:42.094Z,31.30
2023-04-22T08:36:11.326Z,31.40
2023-04-22T08:38:39.207Z,31.50
2023-04-22T08:41:07.409Z,31.60
2023-04-22T08:43:35.561Z,31.70
2023-04-22T08:46:03.577Z,31.80
2023-04-22T08:48:31.263Z,31.90
2023-04-22T08:50:59.528Z,32.00
2023-04-22T08:53:28.609Z,32.10
2023-04-22T08:55:57.633Z,32.20
2023-04-22T08:58:25.580Z,32.30
2023-04-22T09:00:56.730Z,32.30
2023-04-22T09:03:27.192Z,32.40
2023-04-22T09:05:56.249Z,32.40
2023-04-22T09:08:24.073Z,32.40
2023-04-22T09:10:53.138Z,32.30
2023-04-22T09:13:22.461Z,32.20
2023-04-22T09:15:50.142Z,32.10
2023-04-22T09:18:19.177Z,32.00
2023-04-22T09:20:48.399Z,32.00
2023-04-22T09:23:16.182Z,31.90
2023-04-22T09:25:46.312Z,31.80
2023-04-22T09:28:19.431Z,31.80
2023-04-22T09:30:47.959Z,31.70
2023-04-22T09:33:17.292Z,31.70
2023-04-22T09:35:45.351Z,31.70
2023-04-22T09:38:14.199Z,31.70
2023-04-22T09:40:44.221Z,31.70
2023-04-22T09:43:12.761Z,31.70
2023-04-22T09:45:43.411Z,31.70
2023-04-22T09:48:12.316Z,31.70
2023-04-22T09:50:41.310Z,31.70
2023-04-22T09:53:11.636Z,31.70
2023-04-22T09:55:42.030Z,31.70
2023-04-22T09:58:11.825Z,31.80
2023-04-22T10:00:44.959Z,31.80
2023-04-22T10:03:12.961Z,31.80
2023-04-22T10:05:41.262Z,31.80
2023-04-22T10:08:10.823Z,31.80
2023-04-22T10:10:39.027Z,31.80
2023-04-22T10:13:07.542Z,31.80
2023-04-22T10:15:37.680Z,31.80
2023-04-22T10:18:09.500Z,31.70
2023-04-22T10:20:38.592Z,31.70
2023-04-22T10:23:06.912Z,31.70
2023-04-22T10:25:34.545Z,31.60
2023-04-22T10:28:03.861Z,31.60
2023-04-22T10:30:33.487Z,31.50
2023-04-22T10:33:35.223Z,31.50
2023-04-22T10:36:18.895Z,31.40
2023-04-22T10:39:17.067Z,31.30
2023-04-22T10:41:51.907Z,31.30
2023-04-22T10:44:21.495Z,31.20
2023-04-22T10:47:00.360Z,31.20
2023-04-22T10:49:31.222Z,31.10
2023-04-22T10:52:01.479Z,31.00
2023-04-22T10:54:58.082Z,31.00
2023-04-22T10:57:36.199Z,30.90
2023-04-22T11:00:21.323Z,30.90
2023-04-22T11:02:53.576Z,30.80
2023-04-22T11:05:25.977Z,30.80
2023-04-22T11:07:56.770Z,30.80
2023-04-22T11:10:37.298Z,30.80
2023-04-22T11:13:07.142Z,30.70
2023-04-22T11:15:38.571Z,30.70
2023-04-22T11:18:10.904Z,30.70
2023-04-22T11:20:38.972Z,30.60
2023-04-22T11:23:08.183Z,30.60
2023-04-22T11:25:36.055Z,30.60
2023-04-22T11:28:03.894Z,30.60
2023-04-22T11:30:32.131Z,30.50
2023-04-22T11:33:01.392Z,30.50
2023-04-22T11:35:32.107Z,30.50
2023-04-22T11:38:01.035Z,30.40
2023-04-22T11:40:33.785Z,30.40
2023-04-22T11:43:04.287Z,30.40
2023-04-22T11:45:33.127Z,30.40
2023-04-22T11:48:02.129Z,30.40
2023-04-22T11:50:31.463Z,30.40
2023-04-22T11:53:01.105Z,30.30
2023-04-22T11:55:31.645Z,30.30
2023-04-22T11:58:01.155Z,30.30
2023-04-22T12:00:34.227Z,30.30
2023-04-22T12:03:03.580Z,30.30
2023-04-22T12:05:39.892Z,30.30
2023-04-22T12:08:09.558Z,30.20
2023-04-22T12:10:42.711Z,30.20
2023-04-22T12:13:10.892Z,30.20
2023-04-22T12:15:43.431Z,30.20
2023-04-22T12:18:12.516Z,30.20
2023-04-22T12:20:41.411Z,30.20
2023-04-22T12:23:15.298Z,30.10
2023-04-22T12:25:44.738Z,30.10
2023-04-22T12:28:13.305Z,30.10
2023-04-22T12:30:40.931Z,30.10
2023-04-22T12:33:09.440Z,30.10
2023-04-22T12:35:37.104Z,30.10
2023-04-22T12:38:04.790Z,30.10
2023-04-22T12:40:32.437Z,30.10
2023-04-22T12:43:01.412Z,30.10
2023-04-22T12:45:29.070Z,30.00
2023-04-22T12:47:57.913Z,30.00
2023-04-22T12:50:25.751Z,30.00
2023-04-22T12:52:56.410Z,30.00
2023-04-22T12:55:24.126Z,30.00
2023-04-22T12:57:52.099Z,30.00
2023-04-22T13:00:21.472Z,30.00
2023-04-22T13:02:50.127Z,30.00
2023-04-22T13:05:19.483Z,30.00
2023-04-22T13:07:56.413Z,30.00
2023-04-22T13:10:28.281Z,29.90
2023-04-22T13:13:00.562Z,29.90
2023-04-22T13:15:39.309Z,29.90
2023-04-22T13:18:07.257Z,29.90
2023-04-22T13:20:34.945Z,29.90
2023-04-22T13:23:04.798Z,29.90
2023-04-22T13:25:32.674Z,29.90
2023-04-22T13:28:00.330Z,29.90
2023-04-22T13:30:28.104Z,29.90
2023-04-22T13:32:57.233Z,29.90
2023-04-22T13:35:24.947Z,29.90
2023-04-22T13:37:52.714Z,29.90
2023-04-22T13:40:21.550Z,29.90
2023-04-22T13:42:49.350Z,29.90
2023-04-22T13:45:17.016Z,29.90
2023-04-22T13:47:44.811Z,29.80
2023-04-22T13:50:13.882Z,29.80
2023-04-22T13:52:42.644Z,29.80
2023-04-22T13:55:11.010Z,29.80
2023-04-22T13:57:38.718Z,29.80
2023-04-22T14:00:07.444Z,29.80
2023-04-22T14:02:35.281Z,29.80
2023-04-22T14:05:05.176Z,29.80
2023-04-22T14:07:34.170Z,29.80
2023-04-22T14:10:01.773Z,29.80
2023-04-22T14:12:29.388Z,29.80
2023-04-22T14:14:57.555Z,29.80
2023-04-22T14:17:27.604Z,29.70
2023-04-22T14:19:55.631Z,29.70
2023-04-22T14:22:23.272Z,29.70
2023-04-22T14:24:52.313Z,29.70
2023-04-22T14:27:19.961Z,29.70
2023-04-22T14:29:47.698Z,29.70
2023-04-22T14:32:17.469Z,29.70
2023-04-22T14:34:46.376Z,29.60
2023-04-22T14:37:14.021Z,29.70
2023-04-22T14:39:41.937Z,29.60
2023-04-22T14:42:11.191Z,29.60
2023-04-22T14:44:38.924Z,29.60
2023-04-22T14:47:06.612Z,29.60
2023-04-22T14:49:34.284Z,29.60
2023-04-22T14:52:02.464Z,29.60
2023-04-22T14:54:30.401Z,29.60
2023-04-22T14:56:58.644Z,29.60
2023-04-22T14:59:27.801Z,29.60
2023-04-22T15:01:55.674Z,29.60
2023-04-22T15:04:23.403Z,29.60
2023-04-22T15:06:51.150Z,29.60
2023-04-22T15:09:18.792Z,29.60
2023-04-22T15:11:46.417Z,29.60
2023-04-22T15:14:16.053Z,29.50
2023-04-22T15:16:46.321Z,29.50
2023-04-22T15:19:14.887Z,29.50
2023-04-22T15:21:42.546Z,29.50
2023-04-22T15:24:11.133Z,29.50
2023-04-22T15:26:40.575Z,29.50
2023-04-22T15:29:08.338Z,29.50
2023-04-22T15:31:36.008Z,29.50
2023-04-22T15:34:05.069Z,29.50
2023-04-22T15:36:33.181Z,29.50
2023-04-22T15:39:01.175Z,29.50
2023-04-22T15:41:28.858Z,29.50
2023-04-22T15:43:56.571Z,29.40
2023-04-22T15:46:24.548Z,29.40
2023-04-22T15:48:52.244Z,29.40
2023-04-22T15:51:21.828Z,29.40
2023-04-22T15:53:49.618Z,29.40
2023-04-22T15:56:17.586Z,29.40
2023-04-22T15:58:45.571Z,29.40
2023-04-22T16:01:19.505Z,29.40
2023-04-22T16:03:48.443Z,29.40
2023-04-22T16:06:16.575Z,29.40
2023-04-22T16:08:45.911Z,29.40
2023-04-22T16:11:15.295Z,29.40
2023-04-22T16:13:43.457Z,29.40
2023-04-22T16:16:11.650Z,29.40
2023-04-22T16:18:41.389Z,29.40
2023-04-22T16:21:11.353Z,29.30
2023-04-22T16:23:38.997Z,29.30
2023-04-22T16:26:08.150Z,29.30
2023-04-22T16:28:35.840Z,29.30
2023-04-22T16:31:03.571Z,29.30
2023-04-22T16:33:31.355Z,29.30
2023-04-22T16:35:59.059Z,29.30
2023-04-22T16:38:26.793Z,29.30
2023-04-22T16:40:54.822Z,29.30
2023-04-22T16:43:23.840Z,29.30
2023-04-22T16:45:51.561Z,29.30
2023-04-22T16:48:19.262Z,29.30
2023-04-22T16:50:47.014Z,29.30
2023-04-22T16:53:14.749Z,29.30
2023-04-22T16:55:43.419Z,29.30
2023-04-22T16:58:12.249Z,29.30
2023-04-22T17:00:41.681Z,29.20
2023-04-22T17:03:11.857Z,29.30
2023-04-22T17:05:40.291Z,29.30
2023-04-22T17:08:08.262Z,29.30
2023-04-22T17:10:37.319Z,29.20
2023-04-22T17:13:04.979Z,29.20
2023-04-22T17:15:32.662Z,29.20
2023-04-22T17:18:02.492Z,29.20
2023-04-22T17:20:30.249Z,29.20
2023-04-22T17:22:58.534Z,29.20
2023-04-22T17:25:26.336Z,29.20
2023-04-22T17:27:53.977Z,29.20
2023-04-22T17:30:21.830Z,29.20
2023-04-22T17:32:49.724Z,29.20
2023-04-22T17:35:19.018Z,29.20
2023-04-22T17:37:46.692Z,29.10
2023-04-22T17:40:14.401Z,29.10
2023-04-22T17:42:46.138Z,29.10
2023-04-22T17:45:14.391Z,29.10
2023-04-22T17:47:42.121Z,29.10
2023-04-22T17:50:10.210Z,29.10
2023-04-22T17:52:39.277Z,29.10
2023-04-22T17:55:08.186Z,29.10
2023-04-22T17:57:36.584Z,29.10
2023-04-22T18:00:04.732Z,29.10
2023-04-22T18:02:32.571Z,29.10
2023-04-22T18:05:00.604Z,29.10
2023-04-22T18:07:28.407Z,29.10
2023-04-22T18:09:57.424Z,29.00
2023-04-22T18:12:30.419Z,29.00
2023-04-22T18:14:58.850Z,29.00
2023-04-22T18:17:26.669Z,29.00
2023-04-22T18:20:02.688Z,29.00
2023-04-22T18:22:34.148Z,29.00
2023-04-22T18:25:03.257Z,29.00
2023-04-22T18:27:31.501Z,29.00
2023-04-22T18:29:59.191Z,29.00
2023-04-22T18:32:26.945Z,29.00
2023-04-22T18:34:54.658Z,29.00
2023-04-22T18:37:22.339Z,29.00
2023-04-22T18:39:50.025Z,29.00
2023-04-22T18:42:19.338Z,29.00
2023-04-22T18:44:47.081Z,28.90
2023-04-22T18:47:15.013Z,28.90
2023-04-22T18:49:42.666Z,28.90
2023-04-22T18:52:10.350Z,28.90
2023-04-22T18:54:38.650Z,28.90
2023-04-22T18:57:06.922Z,28.90
2023-04-22T18:59:36.001Z,28.90
2023-04-22T19:02:03.779Z,28.90
2023-04-22T19:04:32.093Z,28.90
2023-04-22T19:06:59.859Z,28.90
2023-04-22T19:09:27.559Z,28.90
2023-04-22T19:11:55.296Z,28.80
2023-04-22T19:14:23.012Z,28.80
2023-04-22T19:16:52.342Z,28.80
2023-04-22T19:19:20.053Z,28.80
2023-04-22T19:21:47.764Z,28.80
2023-04-22T19:24:16.131Z,28.80
2023-04-22T19:26:44.855Z,28.80
2023-04-22T19:29:16.020Z,28.80
2023-04-22T19:31:44.756Z,28.80
2023-04-22T19:34:14.428Z,28.80
2023-04-22T19:36:42.106Z,28.80
2023-04-22T19:39:09.814Z,28.80
2023-04-22T19:41:38.501Z,28.80
2023-04-22T19:44:06.389Z,28.80
2023-04-22T19:46:34.977Z,28.80
2023-04-22T19:49:03.344Z,28.80
2023-04-22T19:51:32.615Z,28.80
2023-04-22T19:54:00.706Z,28.80
2023-04-22T19:56:29.302Z,28.80
2023-04-22T19:58:57.414Z,28.80
2023-04-22T20:01:25.724Z,28.80
2023-04-22T20:03:54.419Z,28.80
2023-04-22T20:06:23.394Z,28.80
2023-04-22T20:08:54.261Z,28.80
2023-04-22T20:11:22.345Z,28.80
2023-04-22T20:13:50.738Z,28.80
2023-04-22T20:16:20.745Z,28.80
2023-04-22T20:18:48.769Z,28.80
2023-04-22T20:21:16.797Z,28.80
2023-04-22T20:23:45.900Z,28.80
2023-04-22T20:26:19.780Z,28.80
2023-04-22T20:28:48.914Z,28.80
2023-04-22T20:31:18.480Z,28.80
2023-04-22T20:33:46.576Z,28.70
2023-04-22T20:36:15.747Z,28.80
2023-04-22T20:38:48.842Z,28.70
2023-04-22T20:41:20.123Z,28.70
2023-04-22T20:43:47.853Z,28.70
2023-04-22T20:46:15.534Z,28.70
2023-04-22T20:48:43.328Z,28.70
2023-04-22T20:51:11.001Z,28.70
2023-04-22T20:53:38.662Z,28.70
2023-04-22T20:56:07.802Z,28.70
2023-04-22T20:58:36.824Z,28.70
2023-04-22T21:01:05.667Z,28.70
2023-04-22T21:03:34.784Z,28.70
2023-04-22T21:06:04.267Z,28.70
2023-04-22T21:08:35.415Z,28.70
2023-04-22T21:11:03.430Z,28.70
2023-04-22T21:13:31.721Z,28.70
2023-04-22T21:16:03.407Z,28.70
2023-04-22T21:18:34.044Z,28.70
2023-04-22T21:21:04.165Z,28.70
2023-04-22T21:23:32.528Z,28.70
2023-04-22T21:26:01.880Z,28.60
2023-04-22T21:28:30.351Z,28.60
2023-04-22T21:30:58.486Z,28.70
2023-04-22T21:33:27.589Z,28.70
2023-04-22T21:35:55.374Z,28.60
2023-04-22T21:38:23.100Z,28.60
2023-04-22T21:40:50.916Z,28.60
2023-04-22T21:43:18.544Z,28.60
2023-04-22T21:45:46.343Z,28.60
2023-04-22T21:48:14.007Z,28.60
2023-04-22T21:50:43.107Z,28.60
2023-04-22T21:53:11.108Z,28.60
2023-04-22T21:55:38.879Z,28.60
2023-04-22T21:58:06.524Z,28.60
2023-04-22T22:00:34.447Z,28.60
2023-04-22T22:03:02.180Z,28.60
2023-04-22T22:05:30.180Z,28.60
2023-04-22T22:07:59.175Z,28.60
2023-04-22T22:10:27.193Z,28.60
2023-04-22T22:12:54.844Z,28.60
2023-04-22T22:15:22.708Z,28.60
2023-04-22T22:17:50.893Z,28.60
2023-04-22T22:20:20.313Z,28.60
2023-04-22T22:22:48.607Z,28.50
2023-04-22T22:25:17.764Z,28.50
2023-04-22T22:27:47.098Z,28.50
2023-04-22T22:30:15.935Z,28.50
2023-04-22T22:32:43.626Z,28.50
2023-04-22T22:35:12.071Z,28.50
2023-04-22T22:37:39.809Z,28.50
2023-04-22T22:40:10.044Z,28.50
2023-04-22T22:42:39.038Z,28.50
2023-04-22T22:45:07.561Z,28.50
2023-04-22T22:47:35.422Z,28.50
2023-04-22T22:50:03.288Z,28.50
2023-04-22T22:52:33.988Z,28.50
2023-04-22T22:55:01.670Z,28.50
2023-04-22T22:57:29.312Z,28.50
2023-04-22T22:59:58.365Z,28.50
2023-04-22T23:02:26.285Z,28.50
2023-04-22T23:04:54.178Z,28.50
2023-04-22T23:07:22.321Z,28.50
2023-04-22T23:09:49.981Z,28.40
2023-04-22T23:12:17.668Z,28.40
2023-04-22T23:14:45.978Z,28.40
2023-04-22T23:17:17.136Z,28.40
2023-04-22T23:19:45.462Z,28.40
2023-04-22T23:22:13.642Z,28.40
2023-04-22T23:24:42.032Z,28.40
2023-04-22T23:27:10.498Z,28.40
2023-04-22T23:29:39.067Z,28.40
2023-04-22T23:32:09.131Z,28.40
2023-04-22T23:34:43.002Z,28.40
2023-04-22T23:37:13.549Z,28.40
2023-04-22T23:39:42.023Z,28.40
2023-04-22T23:42:09.735Z,28.40
2023-04-22T23:44:37.495Z,28.40
2023-04-22T23:47:06.511Z,28.40
2023-04-22T23:49:34.209Z,28.40
2023-04-22T23:52:03.332Z,28.30
2023-04-22T23:54:31.501Z,28.30
2023-04-22T23:56:59.762Z,28.30
2023-04-22T23:59:27.959Z,28.30
